Time;durP1;ratioP1;P1;durP2;ratioP2;P2;SDS_P1;SDS_P2;PMS_P1;PMS_P2;Temp;Humidity;BMP_temperature;BMP_pressure;BME280_temperature;BME280_humidity;BME280_pressure;Samples;Min_cycle;Max_cycle;Signal;HPM_P1;HPM_P2
2023/03/30 00:01:27;;;;;;;;;;;22.20;49.50;;;;;;6177544;28;19922;-50
2023/03/30 00:04:33;;;;;;;;;;;22.10;49.50;;;;;;6177207;28;20000;-51
2023/03/30 00:07:37;;;;;;;;;;;22.20;48.10;;;;;;6177098;28;19925;-52
2023/03/30 00:10:38;;;;;;;;;;;22.10;49.60;;;;;;6177226;28;19961;-50
2023/03/30 00:13:40;;;;;;;;;;;22.20;49.60;;;;;;6176828;28;19941;-50
2023/03/30 00:16:42;;;;;;;;;;;22.20;49.70;;;;;;6176838;28;19922;-49
2023/03/30 00:19:44;;;;;;;;;;;22.50;49.90;;;;;;6177200;28;19972;-51
2023/03/30 00:22:46;;;;;;;;;;;22.80;50.00;;;;;;6176734;28;19990;-50
2023/03/30 00:25:48;;;;;;;;;;;22.20;49.80;;;;;;6177343;28;19922;-50
2023/03/30 00:28:49;;;;;;;;;;;22.10;49.80;;;;;;6177493;28;19926;-52
2023/03/30 00:31:50;;;;;;;;;;;22.30;49.80;;;;;;6177039;28;19922;-50
2023/03/30 00:34:52;;;;;;;;;;;22.10;49.80;;;;;;6176604;28;20400;-51
2023/03/30 00:37:56;;;;;;;;;;;22.20;49.90;;;;;;6176495;28;20382;-50
2023/03/30 00:40:59;;;;;;;;;;;22.10;47.10;;;;;;6176710;28;20286;-52
2023/03/30 00:44:01;;;;;;;;;;;22.00;49.70;;;;;;6159372;28;19961;-51
2023/03/30 00:47:04;;;;;;;;;;;22.40;50.00;;;;;;6159442;28;19946;-49
2023/03/30 00:50:07;;;;;;;;;;;22.20;50.00;;;;;;6176577;28;19929;-51
2023/03/30 00:53:11;;;;;;;;;;;22.50;49.90;;;;;;6175146;28;19926;-50
2023/03/30 00:56:15;;;;;;;;;;;22.10;50.00;;;;;;6176305;28;19922;-51
2023/03/30 00:59:16;;;;;;;;;;;22.10;50.00;;;;;;6176606;28;19973;-47
2023/03/30 01:02:20;;;;;;;;;;;22.10;50.20;;;;;;6176254;28;20321;-50
2023/03/30 01:05:23;;;;;;;;;;;22.10;50.60;;;;;;6176100;28;19953;-51
2023/03/30 01:08:26;;;;;;;;;;;21.90;50.00;;;;;;6176394;28;19926;-50
2023/03/30 01:11:27;;;;;;;;;;;22.00;50.20;;;;;;6176180;28;19926;-51
2023/03/30 01:14:29;;;;;;;;;;;22.10;50.20;;;;;;6175929;28;20321;-50
2023/03/30 01:17:32;;;;;;;;;;;22.00;50.30;;;;;;6176015;28;19945;-50
2023/03/30 01:20:44;;;;;;;;;;;22.00;50.10;;;;;;6175922;28;19922;-50
2023/03/30 01:24:03;;;;;;;;;;;22.40;49.60;;;;;;6175881;28;19922;-50
2023/03/30 01:27:15;;;;;;;;;;;22.00;50.10;;;;;;6161348;28;19922;-51
2023/03/30 01:30:26;;;;;;;;;;;21.90;50.10;;;;;;6175900;28;19922;-50
2023/03/30 01:33:36;;;;;;;;;;;22.10;50.30;;;;;;6158649;28;19926;-51
2023/03/30 01:36:44;;;;;;;;;;;21.90;50.10;;;;;;6175807;28;20278;-50
2023/03/30 01:39:50;;;;;;;;;;;21.90;50.20;;;;;;6175626;28;19922;-48
2023/03/30 01:42:55;;;;;;;;;;;22.00;50.20;;;;;;6175918;28;19922;-50
2023/03/30 01:46:00;;;;;;;;;;;22.10;50.50;;;;;;6175941;28;19984;-51
2023/03/30 01:49:09;;;;;;;;;;;21.90;50.20;;;;;;6175435;28;19929;-51
2023/03/30 01:52:14;;;;;;;;;;;21.90;50.30;;;;;;6175280;28;19922;-47
2023/03/30 01:55:18;;;;;;;;;;;22.30;50.50;;;;;;6175745;28;19922;-50
2023/03/30 01:58:21;;;;;;;;;;;21.90;50.50;;;;;;6175350;28;19973;-50
2023/03/30 02:01:24;;;;;;;;;;;22.20;50.50;;;;;;6175164;28;20013;-50
2023/03/30 02:04:26;;;;;;;;;;;21.90;50.40;;;;;;6174942;28;19922;-50
2023/03/30 02:07:30;;;;;;;;;;;21.90;50.50;;;;;;6175230;28;19976;-49
2023/03/30 02:10:33;;;;;;;;;;;21.90;50.60;;;;;;6157993;28;19929;-50
2023/03/30 02:13:36;;;;;;;;;;;21.90;50.60;;;;;;6157815;28;20385;-51
2023/03/30 02:16:41;;;;;;;;;;;22.00;50.60;;;;;;6175097;28;19926;-50
2023/03/30 02:19:45;;;;;;;;;;;21.90;50.50;;;;;;6174883;28;19969;-50
2023/03/30 02:22:47;;;;;;;;;;;22.00;50.60;;;;;;6175190;28;20271;-48
2023/03/30 02:25:49;;;;;;;;;;;22.70;51.00;;;;;;6175025;28;19933;-48
2023/03/30 02:28:52;;;;;;;;;;;22.10;50.80;;;;;;6174784;28;19922;-50
2023/03/30 02:31:56;;;;;;;;;;;21.80;50.60;;;;;;6157753;28;20378;-51
2023/03/30 02:35:08;;;;;;;;;;;21.80;50.60;;;;;;6174590;28;19945;-48
2023/03/30 02:38:21;;;;;;;;;;;22.40;50.80;;;;;;6174647;28;19922;-49
2023/03/30 02:41:33;;;;;;;;;;;21.80;50.70;;;;;;6174997;28;19985;-47
2023/03/30 02:44:40;;;;;;;;;;;21.90;50.70;;;;;;6174689;28;19929;-51
2023/03/30 02:47:47;;;;;;;;;;;21.80;50.60;;;;;;6174520;28;19926;-51
2023/03/30 02:50:53;;;;;;;;;;;21.80;50.80;;;;;;6174371;28;19922;-49
2023/03/30 02:54:23;;;;;;;;;;;21.80;50.60;;;;;;6160023;28;19922;-51
2023/03/30 03:02:21;;;;;;;;;;;22.30;48.40;;;;;;6174361;28;19957;-48
2023/03/30 03:05:32;;;;;;;;;;;21.80;50.90;;;;;;6174390;28;19928;-51
2023/03/30 03:08:43;;;;;;;;;;;21.80;50.90;;;;;;6174117;28;20356;-50
2023/03/30 03:11:47;;;;;;;;;;;21.70;50.80;;;;;;6174273;28;20293;-50
2023/03/30 03:14:49;;;;;;;;;;;21.70;50.90;;;;;;6174343;28;19926;-51
2023/03/30 03:17:51;;;;;;;;;;;21.80;51.00;;;;;;6178233;28;19922;-52
2023/03/30 03:20:52;;;;;;;;;;;21.70;51.10;;;;;;6178404;28;19922;-52
2023/03/30 03:23:56;;;;;;;;;;;21.70;51.10;;;;;;6178210;28;19944;-52
2023/03/30 03:27:05;;;;;;;;;;;21.70;51.00;;;;;;6177860;28;19929;-49
2023/03/30 03:30:18;;;;;;;;;;;21.70;52.80;;;;;;6178367;28;19926;-51
2023/03/30 03:33:30;;;;;;;;;;;22.00;52.50;;;;;;6177909;28;20366;-51
2023/03/30 03:36:42;;;;;;;;;;;21.90;52.80;;;;;;6178015;28;19922;-51
2023/03/30 03:39:44;;;;;;;;;;;21.80;52.70;;;;;;6178261;28;19921;-50
2023/03/30 03:42:47;;;;;;;;;;;21.80;52.80;;;;;;6177901;28;19977;-51
2023/03/30 03:45:49;;;;;;;;;;;21.80;52.70;;;;;;6177821;28;20013;-49
2023/03/30 03:48:51;;;;;;;;;;;21.80;52.70;;;;;;6160917;28;20282;-50
2023/03/30 03:51:53;;;;;;;;;;;21.80;52.90;;;;;;6177793;28;19929;-50
2023/03/30 03:54:54;;;;;;;;;;;21.80;52.90;;;;;;6177554;28;19922;-49
2023/03/30 03:57:56;;;;;;;;;;;21.60;52.80;;;;;;6177869;28;20021;-48
2023/03/30 04:00:57;;;;;;;;;;;21.80;53.50;;;;;;6177602;28;19971;-49
2023/03/30 04:03:59;;;;;;;;;;;22.30;52.90;;;;;;6177421;28;20082;-48
2023/03/30 04:07:01;;;;;;;;;;;21.70;52.90;;;;;;6177839;28;20386;-51
2023/03/30 04:10:02;;;;;;;;;;;21.80;52.90;;;;;;6177474;28;19922;-48
2023/03/30 04:13:19;;;;;;;;;;;22.00;53.10;;;;;;6143501;28;20021;-48
2023/03/30 04:16:30;;;;;;;;;;;21.70;52.90;;;;;;6177067;28;19936;-48
2023/03/30 04:19:44;;;;;;;;;;;21.80;53.10;;;;;;6177401;28;20013;-51
2023/03/30 04:22:52;;;;;;;;;;;21.80;53.10;;;;;;6177042;28;19957;-48
2023/03/30 04:26:06;;;;;;;;;;;21.70;53.10;;;;;;6176746;28;19922;-51
2023/03/30 04:29:19;;;;;;;;;;;22.10;50.50;;;;;;6177316;28;19922;-49
2023/03/30 04:32:33;;;;;;;;;;;21.80;52.80;;;;;;6176835;28;19976;-51
2023/03/30 04:35:47;;;;;;;;;;;22.50;53.50;;;;;;6176788;28;19922;-48
2023/03/30 04:39:07;;;;;;;;;;;21.80;53.10;;;;;;6176735;28;20123;-51
2023/03/30 04:42:29;;;;;;;;;;;21.70;53.10;;;;;;6176535;28;19934;-51
2023/03/30 04:50:13;;;;;;;;;;;21.90;50.60;;;;;;6176376;28;20351;-49
2023/03/30 04:53:26;;;;;;;;;;;21.60;53.10;;;;;;6161067;28;20403;-51
2023/03/30 04:56:46;;;;;;;;;;;21.60;53.20;;;;;;6176081;28;20009;-50
2023/03/30 05:00:00;;;;;;;;;;;22.10;53.20;;;;;;6176582;28;20404;-49
2023/03/30 05:03:16;;;;;;;;;;;21.60;53.20;;;;;;6176366;28;19922;-50
2023/03/30 05:10:25;;;;;;;;;;;21.70;50.30;;;;;;6176042;28;19922;-51
2023/03/30 05:13:46;;;;;;;;;;;21.60;53.20;;;;;;6175908;28;20471;-50
2023/03/30 05:17:02;;;;;;;;;;;21.70;53.40;;;;;;6175897;28;20350;-47
2023/03/30 05:20:13;;;;;;;;;;;21.70;53.20;;;;;;6176221;28;19969;-51
2023/03/30 05:23:31;;;;;;;;;;;22.40;53.80;;;;;;6176021;28;19922;-51
2023/03/30 05:26:50;;;;;;;;;;;21.80;53.50;;;;;;6175841;28;19922;-51
2023/03/30 05:30:12;;;;;;;;;;;21.60;53.30;;;;;;6175565;28;20394;-51
2023/03/30 05:33:33;;;;;;;;;;;21.70;53.20;;;;;;6175457;28;20333;-49
2023/03/30 05:36:38;;;;;;;;;;;21.90;53.30;;;;;;6176370;28;19965;-51
2023/03/30 05:40:00;;;;;;;;;;;21.60;52.80;;;;;;6174971;28;19933;-51
2023/03/30 05:43:15;;;;;;;;;;;22.30;53.80;;;;;;6175763;28;20397;-49
2023/03/30 05:46:28;;;;;;;;;;;21.70;53.40;;;;;;6175442;28;19926;-51
2023/03/30 05:49:48;;;;;;;;;;;22.00;53.60;;;;;;6175308;28;19963;-52
2023/03/30 05:52:59;;;;;;;;;;;21.70;53.40;;;;;;6175436;28;19926;-47
2023/03/30 05:56:17;;;;;;;;;;;22.20;53.60;;;;;;6175396;28;20295;-47
2023/03/30 05:59:26;;;;;;;;;;;21.60;53.20;;;;;;6175004;28;19957;-51
2023/03/30 06:02:46;;;;;;;;;;;21.50;53.20;;;;;;6175042;28;19922;-51
2023/03/30 06:05:52;;;;;;;;;;;21.70;53.20;;;;;;6174706;28;19922;-51
2023/03/30 06:08:53;;;;;;;;;;;22.10;53.20;;;;;;6174733;28;20267;-49
2023/03/30 06:11:59;;;;;;;;;;;21.70;53.20;;;;;;6174950;28;19929;-46
2023/03/30 06:15:01;;;;;;;;;;;22.50;53.80;;;;;;6174732;28;19929;-50
2023/03/30 06:18:13;;;;;;;;;;;21.70;53.30;;;;;;6174622;28;19929;-47
2023/03/30 06:21:24;;;;;;;;;;;22.50;53.60;;;;;;6158752;28;19922;-51
2023/03/30 06:24:38;;;;;;;;;;;21.60;52.90;;;;;;6174590;28;19926;-49
2023/03/30 06:27:40;;;;;;;;;;;22.50;53.60;;;;;;6174609;28;19922;-50
2023/03/30 06:30:48;;;;;;;;;;;21.70;52.90;;;;;;6174785;28;19922;-49
2023/03/30 06:33:52;;;;;;;;;;;22.40;53.60;;;;;;6142175;28;20437;-49
2023/03/30 06:36:54;;;;;;;;;;;21.70;53.20;;;;;;6174778;28;19934;-49
2023/03/30 06:39:58;;;;;;;;;;;22.20;53.00;;;;;;6175185;28;19932;-50
2023/03/30 06:42:59;;;;;;;;;;;21.70;53.20;;;;;;6174428;28;19925;-50
2023/03/30 06:46:11;;;;;;;;;;;22.30;53.60;;;;;;6174273;28;19922;-47
2023/03/30 06:49:17;;;;;;;;;;;21.70;53.30;;;;;;6175256;28;19922;-47
2023/03/30 06:52:27;;;;;;;;;;;22.20;53.50;;;;;;6178955;28;19972;-51
2023/03/30 06:55:31;;;;;;;;;;;21.70;53.30;;;;;;6178340;28;20363;-52
2023/03/30 06:58:33;;;;;;;;;;;22.20;50.90;;;;;;6178695;28;20375;-53
2023/03/30 07:01:35;;;;;;;;;;;21.60;53.10;;;;;;6178284;28;19929;-50
2023/03/30 07:04:51;;;;;;;;;;;22.40;53.70;;;;;;6178017;28;19922;-51
2023/03/30 07:07:59;;;;;;;;;;;21.80;53.10;;;;;;6178187;28;19926;-50
2023/03/30 07:11:01;;;;;;;;;;;22.50;53.40;;;;;;6178234;28;19922;-51
2023/03/30 07:14:08;;;;;;;;;;;21.80;53.00;;;;;;6177900;28;19922;-48
2023/03/30 07:17:10;;;;;;;;;;;22.00;53.20;;;;;;6178231;28;19952;-52
2023/03/30 07:20:14;;;;;;;;;;;22.20;62.00;;;;;;6177931;28;19922;-52
2023/03/30 07:23:35;;;;;;;;;;;22.40;61.60;;;;;;6177629;28;19929;-51
2023/03/30 07:26:37;;;;;;;;;;;22.10;61.40;;;;;;6177591;28;20403;-53
2023/03/30 07:29:41;;;;;;;;;;;22.60;61.50;;;;;;6178472;28;19929;-54
2023/03/30 07:32:43;;;;;;;;;;;22.10;61.10;;;;;;6177401;28;19922;-53
2023/03/30 07:35:46;;;;;;;;;;;22.30;61.30;;;;;;6177267;28;19922;-52
2023/03/30 07:38:50;;;;;;;;;;;22.10;60.90;;;;;;6177722;28;20275;-52
2023/03/30 07:41:53;;;;;;;;;;;22.40;60.90;;;;;;6177533;28;19969;-52
2023/03/30 07:44:54;;;;;;;;;;;22.00;60.80;;;;;;6178678;28;20244;-53
2023/03/30 07:47:58;;;;;;;;;;;22.60;61.00;;;;;;6177317;28;19972;-51
2023/03/30 07:51:01;;;;;;;;;;;22.20;60.90;;;;;;6177058;28;20020;-53
2023/03/30 07:54:05;;;;;;;;;;;22.50;60.70;;;;;;6160301;28;19922;-51
2023/03/30 07:57:22;;;;;;;;;;;22.00;60.70;;;;;;6177196;28;20025;-51
2023/03/30 08:00:25;;;;;;;;;;;22.50;60.80;;;;;;6159815;28;19922;-52
2023/03/30 08:03:47;;;;;;;;;;;22.00;60.30;;;;;;6177658;28;19961;-53
2023/03/30 08:06:51;;;;;;;;;;;22.70;61.30;;;;;;6176686;28;19945;-53
2023/03/30 08:09:55;;;;;;;;;;;22.00;60.70;;;;;;6177345;28;20305;-52
2023/03/30 08:12:56;;;;;;;;;;;22.60;61.20;;;;;;6177096;28;19927;-53
2023/03/30 08:16:00;;;;;;;;;;;22.00;61.00;;;;;;6176784;28;19926;-52
2023/03/30 08:19:02;;;;;;;;;;;22.70;61.30;;;;;;6177131;28;19929;-49
2023/03/30 08:22:03;;;;;;;;;;;22.10;61.10;;;;;;6176768;28;19922;-52
2023/03/30 08:25:05;;;;;;;;;;;22.80;61.50;;;;;;6176630;28;19922;-51
2023/03/30 08:28:06;;;;;;;;;;;22.00;61.00;;;;;;6176820;28;19956;-54
2023/03/30 08:31:09;;;;;;;;;;;22.40;61.30;;;;;;6176888;28;19929;-53
2023/03/30 08:34:11;;;;;;;;;;;22.20;61.10;;;;;;6176417;28;19922;-54
2023/03/30 08:37:12;;;;;;;;;;;22.80;61.50;;;;;;6176234;28;19929;-49
2023/03/30 08:40:14;;;;;;;;;;;22.10;61.20;;;;;;6176666;28;20247;-53
2023/03/30 08:43:34;;;;;;;;;;;22.60;61.30;;;;;;6176235;28;19922;-52
2023/03/30 08:46:37;;;;;;;;;;;22.20;61.10;;;;;;6161933;28;19926;-52
2023/03/30 08:49:40;;;;;;;;;;;22.30;61.10;;;;;;6176350;28;19926;-54
2023/03/30 08:52:42;;;;;;;;;;;22.20;61.20;;;;;;6176048;28;19922;-53
2023/03/30 08:55:46;;;;;;;;;;;22.80;61.50;;;;;;6175812;28;19929;-53
2023/03/30 08:58:54;;;;;;;;;;;22.10;61.00;;;;;;6159500;28;19922;-52
2023/03/30 09:01:58;;;;;;;;;;;22.80;61.40;;;;;;6176130;28;20298;-50
2023/03/30 09:05:05;;;;;;;;;;;22.40;61.50;;;;;;6175876;28;20286;-52
2023/03/30 09:08:11;;;;;;;;;;;22.60;61.60;;;;;;6176040;28;19930;-52
2023/03/30 09:11:15;;;;;;;;;;;22.00;61.40;;;;;;6159590;28;19922;-53
2023/03/30 09:14:21;;;;;;;;;;;22.40;62.20;;;;;;6174351;28;20290;-52
2023/03/30 09:17:25;;;;;;;;;;;22.10;61.50;;;;;;6158573;28;19929;-52
2023/03/30 09:20:28;;;;;;;;;;;22.50;61.80;;;;;;6175685;28;20050;-53
2023/03/30 09:23:30;;;;;;;;;;;22.30;61.80;;;;;;6175449;28;19929;-54
2023/03/30 09:26:34;;;;;;;;;;;22.50;61.80;;;;;;6175705;28;19922;-53
2023/03/30 09:29:38;;;;;;;;;;;21.90;61.40;;;;;;6158314;28;19930;-55
2023/03/30 09:32:41;;;;;;;;;;;22.30;53.80;;;;;;6176043;28;19964;-54
2023/03/30 09:35:57;;;;;;;;;;;21.90;53.70;;;;;;6473206;27;20288;-53
2023/03/30 09:38:58;;;;;;;;;;;22.60;54.00;;;;;;6472658;27;19923;-54
2023/03/30 09:42:10;;;;;;;;;;;22.20;53.90;;;;;;6472864;27;20385;-54
2023/03/30 09:45:13;;;;;;;;;;;21.90;53.60;;;;;;6472325;27;19922;-54
2023/03/30 09:48:15;;;;;;;;;;;22.60;54.00;;;;;;6472576;27;19999;-54
2023/03/30 09:51:19;;;;;;;;;;;22.20;53.90;;;;;;6472641;27;19926;-54
2023/03/30 09:54:22;;;;;;;;;;;22.50;54.00;;;;;;6453529;27;19922;-54
2023/03/30 09:57:24;;;;;;;;;;;22.00;53.80;;;;;;6453571;27;19970;-53
2023/03/30 10:00:28;;;;;;;;;;;22.70;54.20;;;;;;6453347;27;19967;-55
2023/03/30 10:03:29;;;;;;;;;;;21.90;53.80;;;;;;6471845;27;19923;-53
2023/03/30 10:06:34;;;;;;;;;;;22.40;54.00;;;;;;6472158;27;19922;-54
2023/03/30 10:09:42;;;;;;;;;;;22.10;53.50;;;;;;6472073;27;20348;-53
2023/03/30 10:12:44;;;;;;;;;;;22.50;53.80;;;;;;6459660;27;19923;-55
2023/03/30 10:15:48;;;;;;;;;;;22.00;53.60;;;;;;6445723;27;19923;-53
2023/03/30 10:18:51;;;;;;;;;;;22.30;53.70;;;;;;6445392;27;19922;-53
2023/03/30 10:21:56;;;;;;;;;;;21.90;53.50;;;;;;6426867;27;19971;-53
2023/03/30 10:24:58;;;;;;;;;;;22.80;54.00;;;;;;6445715;27;19937;-54
2023/03/30 10:28:01;;;;;;;;;;;22.10;53.60;;;;;;6445368;27;20287;-54
2023/03/30 10:31:04;;;;;;;;;;;22.40;53.70;;;;;;6426810;27;19971;-53
2023/03/30 10:34:13;;;;;;;;;;;22.00;53.60;;;;;;6445438;27;20293;-54
2023/03/30 10:37:17;;;;;;;;;;;22.60;53.80;;;;;;6426422;27;20392;-51
2023/03/30 10:40:20;;;;;;;;;;;22.30;61.90;;;;;;6444888;27;20416;-52
2023/03/30 10:43:27;;;;;;;;;;;22.50;60.50;;;;;;6445387;27;19937;-52
2023/03/30 10:46:29;;;;;;;;;;;22.20;57.80;;;;;;6431955;27;19971;-52
2023/03/30 10:49:38;;;;;;;;;;;22.50;60.20;;;;;;6427410;27;19944;-53
2023/03/30 10:52:43;;;;;;;;;;;22.00;59.80;;;;;;6427134;27;19930;-53
2023/03/30 10:56:03;;;;;;;;;;;22.70;60.10;;;;;;6427474;27;20437;-52
2023/03/30 10:59:16;;;;;;;;;;;22.10;59.80;;;;;;6408689;27;20445;-51
2023/03/30 11:02:24;;;;;;;;;;;22.40;59.80;;;;;;6426936;27;19927;-52
2023/03/30 11:05:28;;;;;;;;;;;22.10;59.60;;;;;;6406848;27;19923;-52
2023/03/30 11:08:36;;;;;;;;;;;22.60;59.90;;;;;;6408635;27;19950;-53
2023/03/30 11:11:39;;;;;;;;;;;22.10;59.70;;;;;;6427167;27;19934;-52
2023/03/30 11:14:45;;;;;;;;;;;22.60;60.00;;;;;;6408503;27;19931;-53
2023/03/30 11:17:53;;;;;;;;;;;22.10;60.10;;;;;;6426696;27;20379;-52
2023/03/30 11:20:58;;;;;;;;;;;22.60;59.80;;;;;;6373578;27;20337;-52
2023/03/30 11:24:03;;;;;;;;;;;22.20;59.70;;;;;;6408299;27;19967;-50
2023/03/30 11:27:09;;;;;;;;;;;22.50;59.30;;;;;;6426217;27;19978;-51
2023/03/30 11:30:13;;;;;;;;;;;22.00;59.50;;;;;;6408147;27;19925;-52
2023/03/30 11:33:18;;;;;;;;;;;22.70;59.80;;;;;;6407544;27;19971;-51
2023/03/30 11:36:22;;;;;;;;;;;21.90;59.20;;;;;;6426537;27;19930;-52
2023/03/30 11:39:28;;;;;;;;;;;22.40;59.40;;;;;;6427001;27;19923;-52
2023/03/30 11:42:35;;;;;;;;;;;21.90;59.20;;;;;;6426429;27;19923;-53
2023/03/30 11:45:41;;;;;;;;;;;22.60;59.50;;;;;;6407923;27;19930;-52
2023/03/30 11:48:51;;;;;;;;;;;22.00;59.10;;;;;;6426507;27;19945;-53
2023/03/30 11:51:59;;;;;;;;;;;22.60;59.40;;;;;;6426093;27;19945;-54
2023/03/30 11:55:10;;;;;;;;;;;22.20;59.00;;;;;;6426129;27;19946;-51
2023/03/30 11:58:19;;;;;;;;;;;22.60;59.10;;;;;;6424790;27;19923;-52
2023/03/30 12:01:28;;;;;;;;;;;21.90;58.90;;;;;;6425980;27;20393;-54
2023/03/30 12:04:34;;;;;;;;;;;22.40;59.10;;;;;;6425822;27;20009;-51
2023/03/30 12:07:44;;;;;;;;;;;22.10;58.90;;;;;;6426007;27;19933;-52
2023/03/30 12:10:47;;;;;;;;;;;22.50;66.30;;;;;;6426422;27;19923;-51
2023/03/30 12:13:50;;;;;;;;;;;22.30;65.80;;;;;;6426316;27;19945;-51
2023/03/30 12:16:56;;;;;;;;;;;22.80;65.90;;;;;;6407138;27;20289;-48
2023/03/30 12:20:02;;;;;;;;;;;22.30;65.40;;;;;;6425685;27;19930;-48
2023/03/30 12:23:10;;;;;;;;;;;22.50;65.40;;;;;;6425349;27;20235;-49
2023/03/30 12:26:23;;;;;;;;;;;22.30;65.20;;;;;;6425827;27;20376;-48
2023/03/30 12:29:42;;;;;;;;;;;22.70;65.20;;;;;;6425504;27;19922;-48
2023/03/30 12:33:00;;;;;;;;;;;22.30;65.00;;;;;;6426407;27;19923;-50
2023/03/30 12:36:01;;;;;;;;;;;22.60;65.10;;;;;;6406452;27;19930;-47
2023/03/30 12:39:05;;;;;;;;;;;22.40;65.10;;;;;;6426062;27;19922;-50
2023/03/30 12:42:09;;;;;;;;;;;22.60;64.90;;;;;;6425404;27;20532;-47
2023/03/30 12:45:20;;;;;;;;;;;22.40;65.10;;;;;;6425148;27;19930;-45
2023/03/30 12:48:28;;;;;;;;;;;23.10;65.40;;;;;;6425352;27;19930;-48
2023/03/30 12:51:34;;;;;;;;;;;22.30;64.90;;;;;;6425357;27;19929;-49
2023/03/30 12:54:42;;;;;;;;;;;22.60;64.70;;;;;;6424798;27;19977;-48
2023/03/30 12:57:50;;;;;;;;;;;22.40;64.80;;;;;;6425381;27;19975;-47
2023/03/30 13:01:01;;;;;;;;;;;22.60;64.30;;;;;;6425171;27;19923;-50
2023/03/30 13:04:06;;;;;;;;;;;22.40;64.40;;;;;;6424914;27;19946;-46
2023/03/30 13:07:13;;;;;;;;;;;22.70;64.30;;;;;;6424656;27;20308;-47
2023/03/30 13:10:46;;;;;;;2.67;1.30;;;22.70;63.00;;;;;;6472710;27;20622;-49
2023/03/30 13:13:54;;;;;;;4.65;1.00;;;22.50;48.10;;;;;;6424939;27;20151;-48
2023/03/30 13:18:34;;;;;;;4.55;1.48;;;22.40;64.60;;;;;;6472799;27;20161;-48
2023/03/30 13:21:46;;;;;;;2.83;1.05;;;22.40;49.20;;;;;;6427889;27;20370;-46
2023/03/30 13:24:53;;;;;;;2.70;1.17;;;22.40;49.40;;;;;;6445730;27;20049;-49
2023/03/30 13:27:59;;;;;;;3.35;1.17;;;22.50;49.90;;;;;;6409560;27;20042;-50
2023/03/30 13:31:11;;;;;;;4.88;1.10;;;22.40;49.30;;;;;;6427495;27;20405;-46
2023/03/30 13:34:23;;;;;;;4.72;1.35;;;22.50;49.30;;;;;;6445648;27;20037;-46
2023/03/30 13:37:33;;;;;;;4.75;1.27;;;22.60;49.40;;;;;;6445918;27;20541;-47
2023/03/30 13:40:42;;;;;;;9.32;1.77;;;22.50;49.30;;;;;;6445631;27;20517;-50
2023/03/30 13:44:21;;;;;;;3.47;1.15;;;22.50;52.50;;;;;;6429869;27;20037;-53
2023/03/30 13:47:34;;;;;;;4.60;1.20;;;22.50;57.10;;;;;;6445587;27;20504;-54
2023/03/30 13:50:43;;;;;;;3.65;1.08;;;23.10;56.90;;;;;;6445729;27;20105;-53
2023/03/30 13:53:50;;;;;;;4.85;1.10;;;22.60;56.60;;;;;;6445562;27;20069;-54
2023/03/30 13:56:58;;;;;;;3.30;1.25;;;22.60;56.40;;;;;;6445328;27;20046;-52
2023/03/30 14:00:07;;;;;;;4.85;1.60;;;22.90;56.60;;;;;;6445195;27;20042;-53
2023/03/30 14:03:32;;;;;;;1.88;0.80;;;22.70;56.20;;;;;;6446038;27;20055;-51
2023/03/30 14:06:43;;;;;;;2.85;0.93;;;22.70;56.20;;;;;;6444997;27;20501;-50
2023/03/30 14:10:02;;;;;;;3.25;1.30;;;22.60;56.10;;;;;;6425937;27;20544;-51
2023/03/30 14:13:04;;;;;;;2.58;0.80;;;22.50;55.70;;;;;;6414265;27;20046;-52
2023/03/30 14:16:06;;;;;;;;;;;22.20;55.80;;;;;;6419167;27;20115;-51
2023/03/30 14:19:12;;;;;;;4.03;1.48;;;22.70;55.90;;;;;;6400497;27;19930;-53
2023/03/30 14:22:19;;;;;;;4.40;1.38;;;22.50;55.50;;;;;;6418249;27;20046;-55
2023/03/30 14:25:25;;;;;;;5.40;1.73;;;22.70;55.70;;;;;;6418957;27;20073;-53
2023/03/30 14:28:29;;;;;;;4.93;1.40;;;22.60;57.00;;;;;;6408282;27;20042;-54
2023/03/30 14:31:39;;;;;;;4.65;1.30;;;22.70;57.80;;;;;;6382893;27;20043;-55
2023/03/30 14:34:45;;;;;;;4.40;1.85;;;22.50;59.00;;;;;;6365888;27;20035;-55
2023/03/30 14:37:48;;;;;;;2.83;1.30;;;22.70;60.00;;;;;;6401033;27;20050;-55
2023/03/30 14:40:54;;;;;;;4.15;1.63;;;22.70;60.60;;;;;;6400819;27;20042;-51
2023/03/30 14:44:00;;;;;;;4.65;1.73;;;22.60;60.30;;;;;;6401141;27;20486;-53
2023/03/30 14:47:01;;;;;;;5.80;2.00;;;22.60;61.40;;;;;;6382605;27;20051;-51
2023/03/30 14:50:07;;;;;;;4.30;1.10;;;22.70;62.50;;;;;;6400710;27;20050;-53
2023/03/30 14:53:12;;;;;;;5.32;1.42;;;22.50;62.90;;;;;;6400470;27;20042;-51
2023/03/30 14:56:16;;;;;;;4.68;1.42;;;22.70;63.80;;;;;;6400612;27;20435;-53
2023/03/30 14:59:18;;;;;;;6.90;1.75;;;22.50;64.10;;;;;;6382042;27;20092;-53
2023/03/30 15:02:22;;;;;;;3.05;1.27;;;22.60;65.40;;;;;;6400271;27;20045;-49
2023/03/30 15:05:28;;;;;;;2.70;0.90;;;22.50;66.10;;;;;;6381969;27;20035;-52
2023/03/30 15:08:33;;;;;;;2.30;0.90;;;22.40;66.50;;;;;;6400421;27;20043;-48
2023/03/30 15:11:38;;;;;;;1.52;0.80;;;22.90;88.90;;;;;;6382230;27;20043;-50
2023/03/30 15:14:40;;;;;;;1.60;0.68;;;23.20;68.40;;;;;;6400520;27;20088;-51
2023/03/30 15:17:47;;;;;;;1.50;0.68;;;22.50;69.20;;;;;;6400103;27;20119;-50
2023/03/30 15:20:49;;;;;;;0.82;0.57;;;22.60;69.40;;;;;;6400257;27;20070;-52
2023/03/30 15:23:53;;;;;;;1.15;0.50;;;22.50;69.80;;;;;;6400320;27;20063;-52
2023/03/30 15:26:57;;;;;;;2.65;0.77;;;22.50;69.90;;;;;;6399693;27;20038;-54
2023/03/30 15:29:59;;;;;;;0.93;0.50;;;22.50;70.60;;;;;;6399821;27;20379;-51
2023/03/30 15:33:16;;;;;;;4.38;0.73;;;22.50;70.30;;;;;;6400174;27;20091;-52
2023/03/30 15:36:21;;;;;;;1.25;0.57;;;22.70;72.70;;;;;;6399834;27;20043;-52
2023/03/30 15:39:32;;;;;;;1.10;0.50;;;22.60;72.80;;;;;;6380558;27;20035;-48
2023/03/30 15:42:34;;;;;;;1.88;0.55;;;22.60;73.00;;;;;;6399997;27;20490;-50
2023/03/30 15:45:38;;;;;;;1.10;0.50;;;22.40;73.30;;;;;;6399686;27;20046;-52
2023/03/30 15:48:44;;;;;;;1.77;0.43;;;22.60;73.40;;;;;;6400216;27;20042;-55
2023/03/30 15:51:49;;;;;;;1.15;0.50;;;22.70;67.30;;;;;;6399408;27;20115;-55
2023/03/30 15:54:54;;;;;;;0.90;0.60;;;22.70;67.40;;;;;;6399625;27;20035;-55
2023/03/30 15:57:58;;;;;;;2.65;0.45;;;22.70;67.30;;;;;;6399846;27;20501;-54
2023/03/30 16:01:01;;;;;;;0.88;0.45;;;22.70;67.60;;;;;;6399691;27;20038;-55
2023/03/30 16:04:05;;;;;;;0.68;0.38;;;22.70;67.40;;;;;;6399428;27;20046;-57
2023/03/30 16:07:13;;;;;;;1.42;0.50;;;22.60;67.10;;;;;;6399083;27;20042;-54
2023/03/30 16:10:23;;;;;;;0.60;0.30;;;22.70;67.20;;;;;;6380701;27;20039;-54
2023/03/30 16:13:24;;;;;;;1.20;0.40;;;22.70;66.90;;;;;;6365945;27;20379;-56
2023/03/30 16:16:26;;;;;;;;;;;22.80;67.40;;;;;;6399262;27;20517;-55
2023/03/30 16:19:27;;;;;;;2.40;0.40;;;23.40;68.10;;;;;;6398867;27;19923;-54
2023/03/30 16:22:28;;;;;;;;;;;22.70;67.40;;;;;;6399495;27;20038;-56
2023/03/30 16:25:30;;;;;;;1.05;0.50;;;23.40;68.10;;;;;;6399495;27;19919;-54
2023/03/30 16:28:48;;;;;;;1.17;0.47;;;22.90;67.10;;;;;;6398874;27;20039;-55
2023/03/30 16:31:50;;;;;;;0.80;0.30;;;22.70;67.30;;;;;;6381117;27;20062;-55
2023/03/30 16:34:53;;;;;;;1.02;0.55;;;22.70;67.20;;;;;;6398947;27;20039;-55
2023/03/30 16:37:55;;;;;;;1.35;0.38;;;22.70;67.40;;;;;;6399248;27;20042;-55
2023/03/30 16:41:00;;;;;;;0.65;0.45;;;22.70;67.40;;;;;;6399119;27;20046;-56
2023/03/30 16:44:01;;;;;;;2.22;0.63;;;22.80;67.90;;;;;;6380517;27;20042;-55
2023/03/30 16:47:06;;;;;;;;;;;22.70;67.40;;;;;;6399088;27;20126;-55
2023/03/30 16:50:18;;;;;;;1.25;0.60;;;23.20;67.90;;;;;;6398237;27;19923;-55
2023/03/30 16:53:20;;;;;;;1.48;0.60;;;22.60;67.10;;;;;;6398796;27;20039;-55
2023/03/30 16:56:22;;;;;;;1.50;0.60;;;22.80;67.40;;;;;;6398424;27;20401;-54
2023/03/30 16:59:25;;;;;;;1.48;0.73;;;22.60;67.10;;;;;;6398936;27;20069;-55
2023/03/30 17:02:26;;;;;;;0.93;0.40;;;22.60;67.00;;;;;;6398556;27;20035;-54
2023/03/30 17:05:28;;;;;;;;;;;22.80;67.20;;;;;;6398781;27;20046;-55
2023/03/30 17:08:30;;;;;;;0.88;0.35;;;23.10;67.60;;;;;;6398233;27;19919;-55
2023/03/30 17:11:32;;;;;;;1.23;0.43;;;22.60;87.70;;;;;;6379806;27;20562;-54
2023/03/30 17:14:34;;;;;;;0.70;0.45;;;22.60;67.10;;;;;;6398335;27;20046;-54
2023/03/30 17:17:36;;;;;;;0.95;0.38;;;22.60;64.60;;;;;;6398056;27;20498;-55
2023/03/30 17:20:39;;;;;;;1.00;0.30;;;22.60;67.20;;;;;;6398327;27;20152;-55
2023/03/30 17:23:46;;;;;;;0.90;0.50;;;22.60;67.10;;;;;;6380302;27;20039;-54
2023/03/30 17:26:48;;;;;;;0.77;0.32;;;22.60;67.40;;;;;;6397871;27;20418;-54
2023/03/30 17:29:49;;;;;;;0.65;0.45;;;22.60;67.10;;;;;;6398271;27;20039;-55
2023/03/30 17:32:53;;;;;;;0.93;0.50;;;22.70;67.40;;;;;;6398011;27;20046;-55
2023/03/30 17:35:58;;;;;;;0.52;0.30;;;22.70;67.30;;;;;;6397724;27;20035;-55
2023/03/30 17:39:03;;;;;;;0.85;0.35;;;22.70;67.30;;;;;;6378887;27;20057;-54
2023/03/30 17:42:08;;;;;;;0.60;0.30;;;22.60;67.00;;;;;;6397671;27;20043;-55
2023/03/30 17:45:10;;;;;;;0.50;0.40;;;22.60;67.60;;;;;;6397829;27;20039;-55
2023/03/30 17:48:15;;;;;;;0.80;0.40;;;22.60;67.60;;;;;;6379363;27;20066;-54